Time;durP1;ratioP1;P1;durP2;ratioP2;P2;SDS_P1;SDS_P2;PMS_P1;PMS_P2;Temp;Humidity;BMP_temperature;BMP_pressure;BME280_temperature;BME280_humidity;BME280_pressure;Samples;Min_cycle;Max_cycle;Signal;HPM_P1;HPM_P2
2021/08/17 00:00:49;;;;;;;37.95;5.13;;;;;;;;;;5100300;28;20124;-82
2021/08/17 00:03:16;;;;;;;28.73;4.95;;;;;;;;;;5099173;28;20203;-81
2021/08/17 00:05:43;;;;;;;35.95;5.25;;;;;;;;;;5099508;28;20111;-81
2021/08/17 00:08:10;;;;;;;33.38;6.07;;;;;;;;;;5098233;28;20098;-81
2021/08/17 00:10:37;;;;;;;37.55;4.85;;;;;;;;;;5099217;28;20056;-81
2021/08/17 00:13:03;;;;;;;32.45;5.43;;;;;;;;;;5098034;28;20052;-81
2021/08/17 00:15:34;;;;;;;30.90;5.55;;;;;;;;;;5098479;28;20052;-82
2021/08/17 00:18:02;;;;;;;37.15;5.53;;;;;;;;;;5099126;28;20356;-81
2021/08/17 00:20:29;;;;;;;33.13;5.32;;;;;;;;;;5099785;28;20420;-81
2021/08/17 00:22:56;;;;;;;26.20;5.40;;;;;;;;;;5100119;28;20066;-81
2021/08/17 00:25:22;;;;;;;34.50;5.82;;;;;;;;;;5099869;28;20485;-81
2021/08/17 00:27:49;;;;;;;32.05;5.78;;;;;;;;;;5098611;28;20414;-81
2021/08/17 00:30:19;;;;;;;39.90;6.68;;;;;;;;;;5098967;28;20107;-81
2021/08/17 00:32:46;;;;;;;36.58;5.95;;;;;;;;;;5111019;28;20056;-81
2021/08/17 00:35:15;;;;;;;24.45;5.55;;;;;;;;;;5110816;28;20048;-81
2021/08/17 00:37:42;;;;;;;34.92;6.05;;;;;;;;;;5099033;28;20102;-81
2021/08/17 00:40:11;;;;;;;37.30;7.45;;;;;;;;;;5099165;28;20130;-81
2021/08/17 00:42:39;;;;;;;32.85;6.10;;;;;;;;;;5099390;28;20052;-81
2021/08/17 00:45:07;;;;;;;33.90;5.45;;;;;;;;;;5097624;28;20113;-81
2021/08/17 00:47:37;;;;;;;30.98;6.10;;;;;;;;;;5097293;28;20048;-81
2021/08/17 00:50:04;;;;;;;27.88;5.63;;;;;;;;;;5099918;28;20044;-81
2021/08/17 00:52:30;;;;;;;27.35;5.40;;;;;;;;;;5099079;28;20351;-81
2021/08/17 00:54:57;;;;;;;28.30;5.18;;;;;;;;;;5099936;28;20093;-81
2021/08/17 00:57:24;;;;;;;29.48;5.45;;;;;;;;;;5109036;28;20059;-80
2021/08/17 00:59:51;;;;;;;22.40;4.35;;;;;;;;;;5116624;28;20058;-81
2021/08/17 01:02:17;;;;;;;22.23;5.75;;;;;;;;;;5111797;28;20443;-79
2021/08/17 01:04:44;;;;;;;26.45;5.35;;;;;;;;;;5106177;28;20277;-80
2021/08/17 01:07:11;;;;;;;26.67;4.80;;;;;;;;;;5107063;28;20048;-80
2021/08/17 01:09:38;;;;;;;26.08;5.22;;;;;;;;;;5101161;28;20044;-81
2021/08/17 01:12:09;;;;;;;28.40;5.03;;;;;;;;;;5097813;28;20043;-81
2021/08/17 01:14:35;;;;;;;22.42;4.38;;;;;;;;;;5099091;28;20127;-81
2021/08/17 01:17:02;;;;;;;22.08;5.00;;;;;;;;;;5098506;28;20058;-80
2021/08/17 01:19:28;;;;;;;29.80;5.45;;;;;;;;;;5097354;28;20390;-80
2021/08/17 01:21:55;;;;;;;32.38;5.53;;;;;;;;;;5097143;28;20436;-80
2021/08/17 01:24:21;;;;;;;22.58;5.30;;;;;;;;;;5096743;28;20139;-79
2021/08/17 01:26:48;;;;;;;28.67;6.20;;;;;;;;;;5096224;28;20060;-79
2021/08/17 01:29:15;;;;;;;30.67;5.45;;;;;;;;;;5097310;28;20051;-80
2021/08/17 01:31:42;;;;;;;31.95;4.80;;;;;;;;;;5096463;28;20055;-80
2021/08/17 01:34:09;;;;;;;31.02;5.20;;;;;;;;;;5096943;28;20052;-80
2021/08/17 01:36:36;;;;;;;25.73;4.88;;;;;;;;;;5096900;28;20048;-79
2021/08/17 01:39:03;;;;;;;21.77;4.45;;;;;;;;;;5096335;28;20059;-80
2021/08/17 01:41:30;;;;;;;32.88;5.00;;;;;;;;;;5096101;28;20058;-79
2021/08/17 01:43:58;;;;;;;28.50;5.10;;;;;;;;;;5095364;28;20183;-79
2021/08/17 01:46:24;;;;;;;22.85;4.80;;;;;;;;;;5093651;28;20324;-79
2021/08/17 01:48:51;;;;;;;31.90;5.82;;;;;;;;;;5094370;28;20062;-79
2021/08/17 01:51:25;;;;;;;22.60;4.82;;;;;;;;;;5093621;28;20048;-79
2021/08/17 01:53:52;;;;;;;21.88;5.80;;;;;;;;;;5097608;28;20054;-79
2021/08/17 01:56:19;;;;;;;27.95;5.70;;;;;;;;;;5101334;28;20516;-79
2021/08/17 01:58:46;;;;;;;27.48;5.50;;;;;;;;;;5097906;28;20461;-79
2021/08/17 02:01:13;;;;;;;21.85;5.35;;;;;;;;;;5096124;28;20043;-79
2021/08/17 02:03:39;;;;;;;33.35;5.95;;;;;;;;;;5099501;28;20044;-79
2021/08/17 02:06:07;;;;;;;28.65;5.40;;;;;;;;;;5101203;28;20414;-79
2021/08/17 02:08:33;;;;;;;31.75;5.65;;;;;;;;;;5097629;28;20455;-80
2021/08/17 02:11:00;;;;;;;23.35;5.32;;;;;;;;;;5095236;28;20055;-79
2021/08/17 02:13:28;;;;;;;28.40;6.07;;;;;;;;;;5095795;28;20343;-79
2021/08/17 02:15:57;;;;;;;32.97;5.75;;;;;;;;;;5098426;28;20048;-79
2021/08/17 02:18:24;;;;;;;35.70;5.20;;;;;;;;;;5096294;28;20170;-79
2021/08/17 02:20:50;;;;;;;29.00;5.47;;;;;;;;;;5097105;28;20220;-79
2021/08/17 02:23:17;;;;;;;40.38;6.45;;;;;;;;;;5094789;28;20313;-81
2021/08/17 02:25:46;;;;;;;28.48;5.70;;;;;;;;;;5094968;28;20048;-81
2021/08/17 02:28:13;;;;;;;18.35;5.00;;;;;;;;;;5096379;28;20390;-81
2021/08/17 02:30:40;;;;;;;27.38;5.53;;;;;;;;;;5095308;28;20048;-81
2021/08/17 02:33:07;;;;;;;30.30;6.05;;;;;;;;;;5095817;28;20055;-80
2021/08/17 02:35:34;;;;;;;30.33;5.38;;;;;;;;;;5095852;28;20052;-81
2021/08/17 02:38:00;;;;;;;26.70;6.15;;;;;;;;;;5095978;28;20409;-81
2021/08/17 02:40:27;;;;;;;25.02;6.70;;;;;;;;;;5095057;28;20071;-80
2021/08/17 02:42:53;;;;;;;37.35;5.90;;;;;;;;;;5095459;28;20052;-81
2021/08/17 02:45:20;;;;;;;28.48;5.53;;;;;;;;;;5095706;28;20335;-80
2021/08/17 02:48:02;;;;;;;26.25;6.28;;;;;;;;;;5097426;28;20048;-80
2021/08/17 02:50:29;;;;;;;28.65;6.40;;;;;;;;;;5097692;28;20143;-80
2021/08/17 02:52:56;;;;;;;24.17;6.07;;;;;;;;;;5096597;28;20048;-78
2021/08/17 02:55:23;;;;;;;19.48;5.90;;;;;;;;;;5097543;28;20051;-80
2021/08/17 02:57:51;;;;;;;30.58;6.07;;;;;;;;;;5094662;28;20067;-78
2021/08/17 03:00:19;;;;;;;23.92;5.88;;;;;;;;;;5095700;28;20146;-80
2021/08/17 03:02:47;;;;;;;29.13;5.63;;;;;;;;;;5094637;28;20117;-80
2021/08/17 03:05:14;;;;;;;32.00;5.93;;;;;;;;;;5095725;28;20342;-80
2021/08/17 03:07:51;;;;;;;24.90;5.85;;;;;;;;;;5097038;28;20156;-81
2021/08/17 03:10:21;;;;;;;34.45;5.38;;;;;;;;;;5094582;28;20048;-80
2021/08/17 03:12:48;;;;;;;23.42;6.00;;;;;;;;;;5094211;28;20095;-81
2021/08/17 03:15:15;;;;;;;22.70;5.38;;;;;;;;;;5097294;28;20375;-80
2021/08/17 03:17:45;;;;;;;23.70;5.95;;;;;;;;;;5101319;28;20274;-79
2021/08/17 03:20:13;;;;;;;22.65;5.57;;;;;;;;;;5102813;28;20214;-80
2021/08/17 03:22:43;;;;;;;21.77;5.57;;;;;;;;;;5101524;28;20044;-80
2021/08/17 03:25:11;;;;;;;31.52;5.82;;;;;;;;;;5099627;28;20067;-80
2021/08/17 03:27:38;;;;;;;22.40;5.05;;;;;;;;;;5098569;28;20063;-80
2021/08/17 03:30:06;;;;;;;22.40;5.43;;;;;;;;;;5098679;28;20059;-80
2021/08/17 03:32:33;;;;;;;33.17;7.10;;;;;;;;;;5100089;28;20408;-80
2021/08/17 03:35:00;;;;;;;21.85;4.63;;;;;;;;;;5100937;28;20056;-80
2021/08/17 03:37:27;;;;;;;25.95;5.00;;;;;;;;;;5098173;28;20044;-81
2021/08/17 03:39:54;;;;;;;23.55;6.15;;;;;;;;;;5080587;28;20052;-79
2021/08/17 03:42:21;;;;;;;19.65;4.43;;;;;;;;;;5078775;28;20056;-80
2021/08/17 03:44:47;;;;;;;32.03;5.43;;;;;;;;;;5080267;28;20310;-79
2021/08/17 03:47:14;;;;;;;25.48;5.20;;;;;;;;;;5078017;28;20268;-80
2021/08/17 03:49:41;;;;;;;22.30;4.38;;;;;;;;;;5092192;28;20408;-79
2021/08/17 03:52:07;;;;;;;28.55;4.72;;;;;;;;;;5097826;28;20059;-79
2021/08/17 03:54:33;;;;;;;30.27;4.88;;;;;;;;;;5097751;28;20102;-79
2021/08/17 03:57:00;;;;;;;19.83;5.00;;;;;;;;;;5099034;28;20048;-79
2021/08/17 03:59:27;;;;;;;23.33;4.90;;;;;;;;;;5097367;28;20058;-79
2021/08/17 04:01:53;;;;;;;24.75;4.85;;;;;;;;;;5096845;28;20048;-79
2021/08/17 04:04:20;;;;;;;25.20;4.32;;;;;;;;;;5097581;28;20044;-79
2021/08/17 04:06:47;;;;;;;19.33;3.85;;;;;;;;;;5097267;28;20138;-79
2021/08/17 04:09:13;;;;;;;28.08;5.72;;;;;;;;;;5100113;28;20052;-79
2021/08/17 04:11:40;;;;;;;21.85;4.20;;;;;;;;;;5102111;28;20208;-79
2021/08/17 04:14:06;;;;;;;17.42;4.03;;;;;;;;;;5111925;28;20059;-79
2021/08/17 04:16:33;;;;;;;26.63;4.70;;;;;;;;;;5108986;28;20052;-79
2021/08/17 04:18:59;;;;;;;30.00;4.47;;;;;;;;;;5094878;28;20137;-80
2021/08/17 04:21:30;;;;;;;24.73;4.30;;;;;;;;;;5099270;28;20048;-79
2021/08/17 04:23:59;;;;;;;21.00;4.10;;;;;;;;;;5095023;28;20056;-80
2021/08/17 04:26:33;;;;;;;28.60;4.53;;;;;;;;;;5098583;28;20198;-80
2021/08/17 04:29:03;;;;;;;22.92;5.05;;;;;;;;;;5101818;28;20040;-80
2021/08/17 04:31:30;;;;;;;18.77;3.97;;;;;;;;;;5107988;28;20070;-81
2021/08/17 04:33:57;;;;;;;23.90;4.82;;;;;;;;;;5099334;28;20051;-81
2021/08/17 04:36:23;;;;;;;23.13;4.63;;;;;;;;;;5099700;28;20052;-81
2021/08/17 04:38:50;;;;;;;21.67;4.55;;;;;;;;;;5104055;28;20050;-81
2021/08/17 04:41:20;;;;;;;31.58;5.32;;;;;;;;;;5112047;28;20083;-82
2021/08/17 04:43:47;;;;;;;28.63;4.15;;;;;;;;;;5109694;28;20056;-82
2021/08/17 04:46:17;;;;;;;32.50;4.78;;;;;;;;;;5113618;28;20036;-82
2021/08/17 04:48:43;;;;;;;27.98;5.18;;;;;;;;;;5112995;28;20214;-83
2021/08/17 04:51:10;;;;;;;26.08;4.75;;;;;;;;;;5112731;28;20040;-82
2021/08/17 04:53:37;;;;;;;22.30;5.10;;;;;;;;;;5111590;28;20052;-82
2021/08/17 04:56:04;;;;;;;15.68;4.18;;;;;;;;;;5113429;28;20040;-82
2021/08/17 04:58:30;;;;;;;25.65;4.93;;;;;;;;;;5106558;28;20059;-82
2021/08/17 05:00:57;;;;;;;20.77;4.32;;;;;;;;;;5098349;28;20433;-81
2021/08/17 05:03:27;;;;;;;20.20;5.00;;;;;;;;;;5095949;28;20117;-81
2021/08/17 05:05:53;;;;;;;25.42;4.78;;;;;;;;;;5095655;28;20048;-81
2021/08/17 05:08:20;;;;;;;20.17;3.83;;;;;;;;;;5093938;28;20040;-80
2021/08/17 05:10:47;;;;;;;31.08;4.78;;;;;;;;;;5094633;28;20055;-79
2021/08/17 05:13:14;;;;;;;23.83;4.63;;;;;;;;;;5099811;28;20160;-79
2021/08/17 05:15:40;;;;;;;18.40;4.97;;;;;;;;;;5109581;28;20036;-81
2021/08/17 05:18:07;;;;;;;21.02;4.15;;;;;;;;;;5104739;28;20031;-80
2021/08/17 05:20:34;;;;;;;22.80;4.75;;;;;;;;;;5091962;28;20071;-80
2021/08/17 05:23:01;;;;;;;20.70;4.80;;;;;;;;;;5125335;27;20079;-80
2021/08/17 05:25:27;;;;;;;27.73;5.30;;;;;;;;;;5084137;28;20102;-79
2021/08/17 05:27:54;;;;;;;17.58;4.07;;;;;;;;;;5072813;28;20352;-79
2021/08/17 05:30:21;;;;;;;19.45;4.95;;;;;;;;;;5072186;28;20103;-79
2021/08/17 05:32:52;;;;;;;18.40;3.75;;;;;;;;;;5070785;28;20053;-79
2021/08/17 05:35:19;;;;;;;18.60;3.47;;;;;;;;;;5081306;28;20060;-80
2021/08/17 05:37:46;;;;;;;22.33;3.88;;;;;;;;;;5091619;28;20060;-78
2021/08/17 05:40:13;;;;;;;23.77;4.65;;;;;;;;;;5089307;28;20420;-79
2021/08/17 05:42:39;;;;;;;20.70;3.63;;;;;;;;;;5078794;28;20056;-79
2021/08/17 05:45:09;;;;;;;21.98;3.92;;;;;;;;;;5071733;28;20060;-80
2021/08/17 05:47:46;;;;;;;16.35;3.25;;;;;;;;;;5073748;28;20048;-81
2021/08/17 05:50:13;;;;;;;18.42;3.50;;;;;;;;;;5072767;28;20455;-82
2021/08/17 05:52:40;;;;;;;23.45;3.88;;;;;;;;;;5072958;28;20433;-82
2021/08/17 05:55:11;;;;;;;21.80;3.80;;;;;;;;;;5072282;28;20048;-82
2021/08/17 05:57:37;;;;;;;17.83;3.47;;;;;;;;;;5076896;28;20040;-81
2021/08/17 06:00:06;;;;;;;24.88;3.70;;;;;;;;;;5094979;28;20048;-81
2021/08/17 06:02:33;;;;;;;24.42;4.40;;;;;;;;;;5105707;28;20326;-81
2021/08/17 06:05:03;;;;;;;23.88;4.00;;;;;;;;;;5099892;28;20071;-83
2021/08/17 06:07:30;;;;;;;17.90;2.90;;;;;;;;;;5095104;28;20050;-82
2021/08/17 06:10:00;;;;;;;18.55;2.90;;;;;;;;;;5094765;28;20039;-81
2021/08/17 06:12:28;;;;;;;14.95;3.10;;;;;;;;;;5092710;28;20531;-82
2021/08/17 06:14:57;;;;;;;22.70;3.83;;;;;;;;;;5093242;28;20116;-82
2021/08/17 06:17:24;;;;;;;15.30;2.90;;;;;;;;;;5091694;28;20143;-81
2021/08/17 06:19:51;;;;;;;19.73;2.67;;;;;;;;;;5095556;28;20044;-82
2021/08/17 06:22:18;;;;;;;26.63;2.92;;;;;;;;;;5091734;28;20134;-84
2021/08/17 06:24:45;;;;;;;18.85;2.65;;;;;;;;;;5094236;28;20047;-82
2021/08/17 06:27:12;;;;;;;19.80;3.45;;;;;;;;;;5090585;28;20044;-81
2021/08/17 06:29:49;;;;;;;13.98;2.80;;;;;;;;;;5088727;28;20043;-81
2021/08/17 06:32:16;;;;;;;19.38;3.70;;;;;;;;;;5089999;28;20048;-81
2021/08/17 06:34:43;;;;;;;20.80;2.85;;;;;;;;;;5075478;28;20596;-82
2021/08/17 06:37:15;;;;;;;19.25;2.38;;;;;;;;;;5071703;28;20184;-81
2021/08/17 06:39:42;;;;;;;16.85;2.28;;;;;;;;;;5076022;28;20356;-81
2021/08/17 06:42:09;;;;;;;20.58;2.72;;;;;;;;;;5080179;28;20040;-82
2021/08/17 06:44:35;;;;;;;15.48;2.78;;;;;;;;;;5091117;28;20055;-83
2021/08/17 06:47:02;;;;;;;19.83;2.83;;;;;;;;;;5091314;28;20634;-82
2021/08/17 06:49:29;;;;;;;16.67;3.30;;;;;;;;;;5088064;28;20044;-82
2021/08/17 06:51:56;;;;;;;14.15;2.65;;;;;;;;;;5089742;28;20040;-82
2021/08/17 06:54:23;;;;;;;18.90;2.47;;;;;;;;;;5089484;28;20067;-83
2021/08/17 06:56:49;;;;;;;13.90;2.83;;;;;;;;;;5091168;28;20097;-83
2021/08/17 06:59:16;;;;;;;14.68;2.25;;;;;;;;;;5088147;28;20297;-83
2021/08/17 07:01:42;;;;;;;10.18;2.00;;;;;;;;;;5086471;28;20059;-83
2021/08/17 07:04:09;;;;;;;18.85;2.42;;;;;;;;;;5091096;28;20048;-83
2021/08/17 07:06:37;;;;;;;13.27;2.53;;;;;;;;;;5090843;28;20143;-83
2021/08/17 07:09:03;;;;;;;15.50;2.72;;;;;;;;;;5091763;28;20245;-84
2021/08/17 07:11:30;;;;;;;19.38;3.45;;;;;;;;;;5089829;28;20056;-83
2021/08/17 07:13:57;;;;;;;13.55;2.35;;;;;;;;;;5091246;28;20056;-84
2021/08/17 07:16:24;;;;;;;15.13;2.70;;;;;;;;;;5087134;28;20052;-83
2021/08/17 07:18:52;;;;;;;16.33;2.30;;;;;;;;;;5073466;28;20223;-84
2021/08/17 07:21:19;;;;;;;17.52;2.42;;;;;;;;;;5071527;28;20095;-84
2021/08/17 07:23:46;;;;;;;15.15;2.05;;;;;;;;;;5082290;28;20075;-83
2021/08/17 07:26:13;;;;;;;13.75;2.33;;;;;;;;;;5086654;28;20054;-84
2021/08/17 07:28:43;;;;;;;11.35;2.10;;;;;;;;;;5087884;28;20044;-83
2021/08/17 07:31:09;;;;;;;14.23;1.92;;;;;;;;;;5084920;28;20573;-84
2021/08/17 07:33:36;;;;;;;10.25;2.17;;;;;;;;;;5081193;28;20032;-82
2021/08/17 07:36:12;;;;;;;11.70;2.28;;;;;;;;;;5090969;28;20437;-84
2021/08/17 07:38:39;;;;;;;18.65;2.40;;;;;;;;;;5091681;28;20048;-84
2021/08/17 07:41:05;;;;;;;11.88;2.88;;;;;;;;;;5092079;28;20131;-85
2021/08/17 07:43:32;;;;;;;23.73;2.83;;;;;;;;;;5094190;28;20040;-84
2021/08/17 07:45:58;;;;;;;11.38;2.15;;;;;;;;;;5094430;28;20048;-83
2021/08/17 07:48:40;;;;;;;11.15;2.08;;;;;;;;;;5094385;28;20040;-85
2021/08/17 07:51:07;;;;;;;20.67;2.65;;;;;;;;;;5093964;28;20054;-83
2021/08/17 07:53:34;;;;;;;12.32;2.88;;;;;;;;;;5071686;28;20053;-84
2021/08/17 07:56:01;;;;;;;11.32;2.38;;;;;;;;;;5074046;28;20080;-84
2021/08/17 07:58:27;;;;;;;12.32;2.22;;;;;;;;;;5074699;28;20098;-84
2021/08/17 08:00:54;;;;;;;12.70;2.50;;;;;;;;;;5077043;28;20075;-84
2021/08/17 08:03:21;;;;;;;14.77;2.70;;;;;;;;;;5075235;28;20110;-85
2021/08/17 08:05:48;;;;;;;10.18;2.45;;;;;;;;;;5078350;28;20176;-85
2021/08/17 08:08:21;;;;;;;15.07;2.92;;;;;;;;;;5076915;28;20085;-85
2021/08/17 08:10:48;;;;;;;15.07;3.33;;;;;;;;;;5077375;28;20041;-85
2021/08/17 08:13:15;;;;;;;11.45;2.38;;;;;;;;;;5079029;28;20079;-84
2021/08/17 08:15:42;;;;;;;16.50;3.10;;;;;;;;;;5079060;28;20056;-85
2021/08/17 08:18:10;;;;;;;8.70;2.40;;;;;;;;;;5078636;28;20454;-84
2021/08/17 08:20:36;;;;;;;9.43;3.00;;;;;;;;;;5079765;28;20054;-85
2021/08/17 08:23:05;;;;;;;11.32;2.55;;;;;;;;;;5103271;28;20052;-85
2021/08/17 08:25:32;;;;;;;16.65;3.15;;;;;;;;;;5106638;28;20106;-85
2021/08/17 08:27:59;;;;;;;8.73;2.80;;;;;;;;;;5097142;28;20066;-84
2021/08/17 08:30:29;;;;;;;12.73;2.90;;;;;;;;;;5100142;28;20077;-85
2021/08/17 08:32:56;;;;;;;10.20;2.53;;;;;;;;;;5108047;28;20094;-85
2021/08/17 08:35:24;;;;;;;15.10;2.63;;;;;;;;;;5111805;28;20077;-85
2021/08/17 08:37:50;;;;;;;15.07;3.72;;;;;;;;;;5106879;28;20060;-85
2021/08/17 08:40:17;;;;;;;14.57;2.78;;;;;;;;;;5109524;28;20044;-85
2021/08/17 08:42:46;;;;;;;22.40;3.25;;;;;;;;;;5111651;28;20040;-85
2021/08/17 08:45:14;;;;;;;13.38;3.25;;;;;;;;;;5109632;28;20381;-86
2021/08/17 08:47:41;;;;;;;10.68;3.20;;;;;;;;;;5098399;28;20108;-86
2021/08/17 08:50:09;;;;;;;13.60;3.05;;;;;;;;;;5084434;28;20071;-87
2021/08/17 08:52:39;;;;;;;9.63;3.10;;;;;;;;;;5075743;28;20173;-86
2021/08/17 08:55:07;;;;;;;12.88;3.40;;;;;;;;;;5076768;28;20376;-86
2021/08/17 08:57:34;;;;;;;13.73;3.40;;;;;;;;;;5095479;28;20052;-86
2021/08/17 09:00:03;;;;;;;19.20;4.15;;;;;;;;;;5095480;28;20082;-86
2021/08/17 09:02:34;;;;;;;16.05;3.60;;;;;;;;;;5095132;28;20231;-85
2021/08/17 09:05:01;;;;;;;13.18;3.60;;;;;;;;;;5097741;28;20062;-85
2021/08/17 09:07:46;;;;;;;15.90;4.13;;;;;;;;;;5102452;28;20071;-86
2021/08/17 09:10:15;;;;;;;19.15;4.00;;;;;;;;;;5098039;28;20112;-85
2021/08/17 09:12:53;;;;;;;13.35;4.28;;;;;;;;;;5094592;28;20051;-85
2021/08/17 09:15:31;;;;;;;19.05;3.97;;;;;;;;;;5096556;28;20495;-85
2021/08/17 09:17:57;;;;;;;13.93;3.55;;;;;;;;;;5095131;28;20052;-86
2021/08/17 09:20:29;;;;;;;21.63;4.65;;;;;;;;;;5095949;28;20079;-85
2021/08/17 09:22:56;;;;;;;23.65;4.78;;;;;;;;;;5094221;28;20163;-86
2021/08/17 09:25:31;;;;;;;14.68;4.68;;;;;;;;;;5095030;28;20043;-86
2021/08/17 09:28:17;;;;;;;15.63;4.93;;;;;;;;;;5092276;28;20109;-85
2021/08/17 09:30:47;;;;;;;17.23;4.95;;;;;;;;;;5098971;28;20067;-86
2021/08/17 09:33:16;;;;;;;18.70;5.28;;;;;;;;;;5077457;28;20114;-87
2021/08/17 09:35:44;;;;;;;15.80;4.68;;;;;;;;;;5071369;28;20048;-86
2021/08/17 09:38:15;;;;;;;14.55;5.03;;;;;;;;;;5069490;28;20361;-84
2021/08/17 09:40:42;;;;;;;15.70;5.32;;;;;;;;;;5072408;28;20112;-84
2021/08/17 09:43:37;;;;;;;22.63;4.80;;;;;;;;;;5068775;28;20204;-85
2021/08/17 09:46:10;;;;;;;15.68;4.70;;;;;;;;;;5079804;28;20048;-83
2021/08/17 09:48:37;;;;;;;11.35;4.93;;;;;;;;;;5069744;28;20474;-84
2021/08/17 09:51:04;;;;;;;20.75;6.18;;;;;;;;;;5076332;28;20051;-84
2021/08/17 09:53:38;;;;;;;15.68;4.85;;;;;;;;;;5089142;28;20079;-84
2021/08/17 09:56:07;;;;;;;19.73;5.88;;;;;;;;;;5068651;28;20307;-84
2021/08/17 09:58:35;;;;;;;13.23;5.10;;;;;;;;;;5087451;28;20048;-84
2021/08/17 10:01:03;;;;;;;18.20;5.55;;;;;;;;;;5089564;28;20048;-83
2021/08/17 10:03:37;;;;;;;21.73;5.88;;;;;;;;;;5092540;28;20068;-84
2021/08/17 10:06:04;;;;;;;12.85;4.97;;;;;;;;;;5096912;28;20032;-85
2021/08/17 10:08:32;;;;;;;17.13;5.68;;;;;;;;;;5103558;28;20048;-84
2021/08/17 10:11:00;;;;;;;17.05;4.70;;;;;;;;;;5096187;28;20048;-84
2021/08/17 10:13:34;;;;;;;15.68;4.72;;;;;;;;;;5093331;28;20359;-82
2021/08/17 10:16:01;;;;;;;10.27;4.35;;;;;;;;;;5088616;28;20343;-84
2021/08/17 10:18:30;;;;;;;18.60;5.60;;;;;;;;;;5099117;28;20192;-85
2021/08/17 10:20:58;;;;;;;11.38;5.03;;;;;;;;;;5101181;28;20261;-82
2021/08/17 10:23:29;;;;;;;13.55;5.47;;;;;;;;;;5099455;28;20209;-83
2021/08/17 10:25:59;;;;;;;11.50;5.22;;;;;;;;;;5101804;28;20044;-84
2021/08/17 10:28:28;;;;;;;16.02;5.45;;;;;;;;;;5100415;28;20086;-84
2021/08/17 10:31:13;;;;;;;13.18;4.90;;;;;;;;;;5094580;28;20050;-84
2021/08/17 10:33:46;;;;;;;14.27;5.68;;;;;;;;;;5087468;28;20143;-83
2021/08/17 10:36:28;;;;;;;16.30;6.22;;;;;;;;;;5079529;28;20397;-83
2021/08/17 10:38:55;;;;;;;14.27;5.28;;;;;;;;;;5073215;28;20375;-84
2021/08/17 10:41:31;;;;;;;14.15;5.15;;;;;;;;;;5085731;28;20060;-84
2021/08/17 10:43:57;;;;;;;10.95;5.70;;;;;;;;;;5099480;28;20032;-83
2021/08/17 10:46:52;;;;;;;14.43;5.10;;;;;;;;;;5090475;28;20131;-83
2021/08/17 10:49:43;;;;;;;11.90;5.25;;;;;;;;;;5086651;28;20371;-84
2021/08/17 10:52:11;;;;;;;11.50;4.55;;;;;;;;;;5086017;28;20315;-84
2021/08/17 10:54:42;;;;;;;15.10;5.35;;;;;;;;;;5093895;28;20052;-83
2021/08/17 10:57:25;;;;;;;10.88;4.53;;;;;;;;;;5099906;28;20047;-85
2021/08/17 11:00:01;;;;;;;11.60;5.20;;;;;;;;;;5112976;28;20048;-84
2021/08/17 11:02:53;;;;;;;14.68;5.88;;;;;;;;;;5091770;28;20040;-83
2021/08/17 11:07:51;;;;;;;21.08;6.13;;;;;;;;;;5087674;28;20040;-84
2021/08/17 11:10:32;;;;;;;12.20;4.88;;;;;;;;;;5089084;28;20191;-83
2021/08/17 11:13:08;;;;;;;16.88;5.30;;;;;;;;;;5122487;27;20268;-84
2021/08/17 11:16:04;;;;;;;11.52;5.10;;;;;;;;;;5090161;28;20338;-84
2021/08/17 11:18:48;;;;;;;14.07;5.32;;;;;;;;;;5089649;28;20047;-84
2021/08/17 11:21:35;;;;;;;14.38;5.63;;;;;;;;;;5088262;28;20175;-84
2021/08/17 11:24:09;;;;;;;15.60;5.28;;;;;;;;;;5087099;28;20047;-83
2021/08/17 11:26:36;;;;;;;14.00;5.63;;;;;;;;;;5088466;28;20220;-85
2021/08/17 11:29:13;;;;;;;14.35;5.63;;;;;;;;;;5091777;28;20055;-83
2021/08/17 11:31:43;;;;;;;12.40;5.50;;;;;;;;;;5105931;28;20043;-84
2021/08/17 11:34:11;;;;;;;22.73;6.85;;;;;;;;;;5101793;28;20139;-84
2021/08/17 11:36:51;;;;;;;13.27;5.40;;;;;;;;;;5090303;28;20043;-85
2021/08/17 11:39:19;;;;;;;14.90;5.43;;;;;;;;;;5095031;28;20040;-84
2021/08/17 11:42:22;;;;;;;11.55;6.03;;;;;;;;;;5110474;28;20035;-85
2021/08/17 11:44:55;;;;;;;19.35;6.82;;;;;;;;;;5094388;28;20039;-83
2021/08/17 11:47:25;;;;;;;16.88;6.32;;;;;;;;;;5093539;28;20044;-84
2021/08/17 11:50:00;;;;;;;18.17;6.60;;;;;;;;;;5107440;28;20157;-85
2021/08/17 11:52:43;;;;;;;;;;;;;;;;;;5096389;28;20299;-84
2021/08/17 11:55:22;;;;;;;16.40;6.45;;;;;;;;;;5092120;28;19930;-83
2021/08/17 11:57:52;;;;;;;12.40;6.60;;;;;;;;;;5095088;28;20152;-85
2021/08/17 12:00:21;;;;;;;18.77;7.15;;;;;;;;;;5094993;28;20127;-84
2021/08/17 12:02:52;;;;;;;14.95;6.68;;;;;;;;;;5095680;28;20102;-84
2021/08/17 12:05:21;;;;;;;16.60;6.95;;;;;;;;;;5097072;28;20058;-84
2021/08/17 12:07:49;;;;;;;18.55;7.07;;;;;;;;;;5108718;28;20064;-84
2021/08/17 12:10:17;;;;;;;13.32;7.15;;;;;;;;;;5096400;28;20505;-85
2021/08/17 12:12:52;;;;;;;14.75;7.40;;;;;;;;;;5095793;28;20140;-85
2021/08/17 12:15:24;;;;;;;15.90;7.13;;;;;;;;;;5094503;28;20341;-84
2021/08/17 12:18:13;;;;;;;15.63;7.25;;;;;;;;;;5091415;28;20040;-86
2021/08/17 12:20:54;;;;;;;19.88;8.07;;;;;;;;;;5098674;28;20044;-84
2021/08/17 12:23:23;;;;;;;16.85;7.55;;;;;;;;;;5095671;28;20046;-84
2021/08/17 12:25:55;;;;;;;15.48;7.38;;;;;;;;;;5076896;28;20367;-83
2021/08/17 12:28:28;;;;;;;15.10;6.97;;;;;;;;;;5073442;28;20139;-84
2021/08/17 12:31:14;;;;;;;15.43;7.75;;;;;;;;;;5073040;28;20083;-84
2021/08/17 12:34:08;;;;;;;15.93;8.10;;;;;;;;;;5088083;28;20064;-85
2021/08/17 12:36:41;;;;;;;20.70;8.57;;;;;;;;;;5073028;28;20098;-84
2021/08/17 12:39:29;;;;;;;21.88;8.98;;;;;;;;;;5090662;28;20491;-84
2021/08/17 12:42:06;;;;;;;15.90;8.43;;;;;;;;;;5071169;28;20227;-84
2021/08/17 12:44:37;;;;;;;21.50;9.80;;;;;;;;;;5080665;28;20056;-83
2021/08/17 12:47:11;;;;;;;22.10;10.18;;;;;;;;;;5097718;28;20044;-84
2021/08/17 12:50:18;;;;;;;17.85;9.57;;;;;;;;;;5114431;28;20040;-84
2021/08/17 12:56:27;;;;;;;21.95;10.07;;;;;;;;;;5106749;28;20089;-84
2021/08/17 12:58:58;;;;;;;16.65;7.90;;;;;;;;;;5090861;28;20051;-83
2021/08/17 13:01:26;;;;;;;17.15;8.70;;;;;;;;;;5093696;28;20721;-84
2021/08/17 13:03:56;;;;;;;19.00;8.65;;;;;;;;;;5090332;28;20247;-83
2021/08/17 13:06:23;;;;;;;15.18;8.35;;;;;;;;;;5088072;28;20045;-85
2021/08/17 13:08:58;;;;;;;20.95;9.20;;;;;;;;;;5088383;28;20063;-84
2021/08/17 13:11:32;;;;;;;17.02;8.60;;;;;;;;;;5093106;28;20063;-85
2021/08/17 13:13:59;;;;;;;18.30;8.93;;;;;;;;;;5128969;28;20039;-83
2021/08/17 13:16:25;;;;;;;16.35;9.10;;;;;;;;;;5130432;28;20050;-85
2021/08/17 13:18:52;;;;;;;19.70;9.27;;;;;;;;;;5124929;27;20468;-84
2021/08/17 13:21:19;;;;;;;20.42;9.48;;;;;;;;;;5116633;28;20082;-84
2021/08/17 13:23:48;;;;;;;19.90;9.30;;;;;;;;;;5084515;28;20101;-84
2021/08/17 13:26:15;;;;;;;17.50;9.80;;;;;;;;;;5090632;28;20063;-84
2021/08/17 13:28:54;;;;;;;19.67;9.82;;;;;;;;;;5103905;28;20028;-84
2021/08/17 13:31:21;;;;;;;19.92;9.27;;;;;;;;;;5098689;28;20435;-84
2021/08/17 13:33:48;;;;;;;19.27;9.73;;;;;;;;;;5079571;28;20380;-83
2021/08/17 13:36:15;;;;;;;19.05;9.82;;;;;;;;;;5083495;28;20052;-83
2021/08/17 13:38:43;;;;;;;20.25;8.98;;;;;;;;;;5090591;28;20089;-83
2021/08/17 13:41:32;;;;;;;21.95;9.63;;;;;;;;;;5108282;28;20103;-83
2021/08/17 13:44:01;;;;;;;21.50;9.63;;;;;;;;;;5106832;28;20128;-83
2021/08/17 13:46:27;;;;;;;16.55;8.88;;;;;;;;;;5081323;28;20044;-83
2021/08/17 13:48:55;;;;;;;16.75;9.30;;;;;;;;;;5100802;28;20055;-85
2021/08/17 13:51:23;;;;;;;22.60;9.48;;;;;;;;;;5074161;28;20048;-84
2021/08/17 13:53:54;;;;;;;18.67;9.07;;;;;;;;;;5093279;28;20355;-84
2021/08/17 13:56:28;;;;;;;23.13;9.40;;;;;;;;;;5103953;28;20066;-84
2021/08/17 13:59:03;;;;;;;17.60;8.93;;;;;;;;;;5104673;28;20055;-84
2021/08/17 14:01:30;;;;;;;15.32;8.73;;;;;;;;;;5089345;28;20423;-84
2021/08/17 14:04:00;;;;;;;17.95;9.20;;;;;;;;;;5100185;28;20249;-82
2021/08/17 14:06:27;;;;;;;16.02;8.85;;;;;;;;;;5137182;27;20060;-83
2021/08/17 14:08:54;;;;;;;16.83;8.85;;;;;;;;;;5090894;28;20082;-83
2021/08/17 14:11:21;;;;;;;17.63;10.23;;;;;;;;;;5085660;28;20055;-83
2021/08/17 14:13:48;;;;;;;18.52;8.88;;;;;;;;;;5104131;28;20058;-83
2021/08/17 14:16:15;;;;;;;18.25;9.23;;;;;;;;;;5091418;28;20117;-84
2021/08/17 14:18:43;;;;;;;18.33;9.43;;;;;;;;;;5113532;28;20051;-84
2021/08/17 14:21:16;;;;;;;17.52;10.13;;;;;;;;;;5111417;28;20063;-83
2021/08/17 14:23:45;;;;;;;20.52;9.75;;;;;;;;;;5104342;28;20279;-84
2021/08/17 14:26:13;;;;;;;22.13;9.85;;;;;;;;;;5089252;28;20075;-85
2021/08/17 14:28:40;;;;;;;19.90;10.23;;;;;;;;;;5093686;28;20120;-83
2021/08/17 14:31:09;;;;;;;20.27;9.98;;;;;;;;;;5090674;28;20047;-83
2021/08/17 14:33:35;;;;;;;18.15;9.95;;;;;;;;;;5093323;28;20047;-85
2021/08/17 14:36:06;;;;;;;14.95;8.50;;;;;;;;;;5125756;27;20046;-85
2021/08/17 14:38:32;;;;;;;15.50;8.43;;;;;;;;;;5107420;28;20032;-84
2021/08/17 14:41:00;;;;;;;18.38;9.68;;;;;;;;;;5107235;28;20095;-84
2021/08/17 14:43:27;;;;;;;15.90;8.82;;;;;;;;;;5089359;28;20203;-84
2021/08/17 14:45:54;;;;;;;16.33;9.32;;;;;;;;;;5070623;28;20173;-84
2021/08/17 14:48:24;;;;;;;19.08;8.77;;;;;;;;;;5081622;28;20124;-84
2021/08/17 14:50:51;;;;;;;17.05;9.65;;;;;;;;;;5105747;28;20036;-84